KBJJ/BJJ METAR and TAF weather

Enter ICAO airport designator
Station Type Date Time Source
KBJJ METAR 2020/07/06 23:56 UTC NOAA

KBJJ 062356Z AUTO 00000KT 10SM CLR 31/18 A3001 RMK AO2 SLP151 T03060178 10339 20306 55003


Station Type Date Time Source
KBJJ Decoded METAR 2020/07/06 23:56 UTC NOAA

WOOSTER WAYNE COUNTY AIRPORT, OH, United States (KBJJ) 40-52N 81-53W 343M
Jul 06, 2020 - 07:56 PM EDT / 2020.07.06 2356 UTC
Wind: Calm:0
Visibility: 10 mile(s):0
Sky conditions: clear
Temperature: 87.1 F (30.6 C)
Dew Point: 64.0 F (17.8 C)
Relative Humidity: 46%
Pressure (altimeter): 30.01 in. Hg (1016 hPa)
Pressure tendency: 0.01 inches (0.3 hPa) lower than three hours ago
ob: KBJJ 062356Z AUTO 00000KT 10SM CLR 31/18 A3001 RMK AO2 SLP151 T03060178 10339 20306 55003
cycle: 0

Station Type Date Time Source
KBJJ TAF UTC NOAA

Error!

Example: see airport list